Aeroporto :
LOGIN :

Iscrizione | Disclaimer

   EN    FR    IT 

 










Sommario :    VFR   VFR Marginale   IFR   IFR Intensivo   IFR Molto Intensivo
Visibilità : 
Base nubi : 
>= 8 km
>= 3000ft
5 / 8 km
1000 / 3000 ft
1500m / 5 km
500 / 1000 ft
800 / 1500m
200 / 500 ft
< 800m
< 200 ft
Simboli :   Temporali  Nebbia  Neve Forte  Precipitazioni Forti  Vento > 20 kt
SIGMETs :   Varie  Temporali  Ghiacco  Turbolenza  Onda orograficha  Ceneri Vulcaniche






- Altitudine del aeroporto : 39 ft
- Codice IATA : SUF


LICA - Lamezia Terme

ULTIMO METAR :
  • 301950Z 17005KT 9999 FEW020 SCT060 12/09 Q1013

METARs OBSOLETI :
  • 301850Z 19007KT 170V230 9999 FEW010 SCT020 BKN060 12/10 Q1012
  • 301750Z VRB02KT 9999 FEW010 SCT020 BKN050 13/10 Q1011

TAF TAF LICA
Valido dal 30 a 18 ore il 31 a 18 ore UTC


301700Z 3018/3118 27010KT 9999 SCT020
TEMPO 3018/3024 4000 TSRA
BECMG 3019/3021 07008KT
BECMG 3109/3111 27010KT



MetMap, La meteo Aeronautica in un colpo d'occhio ! - Copyright ORBIFLY Dicembre 2007 - Disclaimer

ORBIFLY MET'MAP TEAM :

Programmazione e sviluppo : Alexandra Zaïnal
Concezione : Baudouin d'Aumeries
Aiuto per la programmazione : Marc-Olivier Méhu
Supporto tecnico e logistico : Manuel Goepfert
Aiuto per la traduzione : Arnaldo La Scala

Contatto : metmap@orbifly.com




FONTI E CREDITI :

   NOAA